createdAt,value
2022-11-09T00:00:40.570Z,15.67
2022-11-09T00:01:40.666Z,15.65
2022-11-09T00:02:43.987Z,15.70
2022-11-09T00:03:40.653Z,15.72
2022-11-09T00:04:40.526Z,15.72
2022-11-09T00:05:40.559Z,15.73
2022-11-09T00:06:40.594Z,15.62
2022-11-09T00:07:40.514Z,15.72
2022-11-09T00:08:40.474Z,15.73
2022-11-09T00:09:40.564Z,15.75
2022-11-09T00:10:40.459Z,15.75
2022-11-09T00:11:40.497Z,15.79
2022-11-09T00:12:40.471Z,15.73
2022-11-09T00:13:40.441Z,15.76
2022-11-09T00:14:40.455Z,15.84
2022-11-09T00:15:40.419Z,15.70
2022-11-09T00:16:40.390Z,15.79
2022-11-09T00:17:40.457Z,15.77
2022-11-09T00:18:40.361Z,15.76
2022-11-09T00:19:40.350Z,15.67
2022-11-09T00:20:45.958Z,15.70
2022-11-09T00:21:40.384Z,15.77
2022-11-09T00:22:40.360Z,15.70
2022-11-09T00:23:40.312Z,15.73
2022-11-09T00:24:40.308Z,15.73
2022-11-09T00:25:40.365Z,15.72
2022-11-09T00:26:40.289Z,15.76
2022-11-09T00:27:40.272Z,15.70
2022-11-09T00:28:40.360Z,15.67
2022-11-09T00:29:40.254Z,15.73
2022-11-09T00:30:40.274Z,15.72
2022-11-09T00:31:40.245Z,15.67
2022-11-09T00:32:40.218Z,15.70
2022-11-09T00:33:40.277Z,15.68
2022-11-09T00:34:40.187Z,15.70
2022-11-09T00:35:40.222Z,15.73
2022-11-09T00:36:40.174Z,15.77
2022-11-09T00:37:40.267Z,15.79
2022-11-09T00:38:40.141Z,15.75
2022-11-09T00:39:40.146Z,15.68
2022-11-09T00:40:40.211Z,15.67
2022-11-09T00:41:40.115Z,15.72
2022-11-09T00:42:40.094Z,15.79
2022-11-09T00:43:40.100Z,15.76
2022-11-09T00:44:40.136Z,15.79
2022-11-09T00:45:40.111Z,15.70
2022-11-09T00:46:40.074Z,15.76
2022-11-09T00:47:40.055Z,15.77
2022-11-09T00:48:40.027Z,15.75
2022-11-09T00:49:40.068Z,15.79
2022-11-09T00:50:40.009Z,15.65
2022-11-09T00:51:40.013Z,15.67
2022-11-09T00:52:39.992Z,15.68
2022-11-09T00:53:40.006Z,15.68
2022-11-09T00:54:40.042Z,15.70
2022-11-09T00:55:39.997Z,15.72
2022-11-09T00:56:39.950Z,15.68
2022-11-09T00:57:39.960Z,15.70
2022-11-09T00:58:40.036Z,15.70
2022-11-09T00:59:39.914Z,15.76
2022-11-09T01:00:39.982Z,15.68
2022-11-09T01:01:39.919Z,15.64
2022-11-09T01:02:39.879Z,15.65
2022-11-09T01:03:39.882Z,15.59
2022-11-09T01:04:39.924Z,15.70
2022-11-09T01:05:39.851Z,15.68
2022-11-09T01:06:39.861Z,15.70
2022-11-09T01:07:39.821Z,15.75
2022-11-09T01:08:39.814Z,15.72
2022-11-09T01:09:39.882Z,15.67
2022-11-09T01:10:39.801Z,15.68
2022-11-09T01:11:39.815Z,15.64
2022-11-09T01:12:39.766Z,15.62
2022-11-09T01:13:39.748Z,15.67
2022-11-09T01:14:39.791Z,15.61
2022-11-09T01:15:39.730Z,15.58
2022-11-09T01:16:39.758Z,15.62
2022-11-09T01:17:39.707Z,15.57
2022-11-09T01:18:39.696Z,15.55
2022-11-09T01:19:39.690Z,15.59
2022-11-09T01:20:39.734Z,15.61
2022-11-09T01:21:39.678Z,15.61
2022-11-09T01:22:39.690Z,15.55
2022-11-09T01:23:39.646Z,15.57
2022-11-09T01:24:39.641Z,15.55
2022-11-09T01:25:39.687Z,15.57
2022-11-09T01:26:39.661Z,15.57
2022-11-09T01:27:39.605Z,15.55
2022-11-09T01:28:39.600Z,15.64
2022-11-09T01:29:39.586Z,15.62
2022-11-09T01:30:39.567Z,15.61
2022-11-09T01:31:39.648Z,15.65
2022-11-09T01:32:39.566Z,15.70
2022-11-09T01:33:39.541Z,15.64
2022-11-09T01:34:39.579Z,15.64
2022-11-09T01:35:39.567Z,15.58
2022-11-09T01:36:39.495Z,15.59
2022-11-09T01:37:39.511Z,15.61
2022-11-09T01:38:39.474Z,15.61
2022-11-09T01:39:39.488Z,15.61
2022-11-09T01:40:39.506Z,15.75
2022-11-09T01:41:39.437Z,15.75
2022-11-09T01:42:39.451Z,15.75
2022-11-09T01:43:39.433Z,15.70
2022-11-09T01:44:39.456Z,15.77
2022-11-09T01:45:39.438Z,15.75
2022-11-09T01:46:39.439Z,15.73
2022-11-09T01:47:39.370Z,15.77
2022-11-09T01:48:39.383Z,15.75
2022-11-09T01:49:39.351Z,15.77
2022-11-09T01:50:39.357Z,15.70
2022-11-09T01:51:39.397Z,15.86
2022-11-09T01:52:39.331Z,15.80
2022-11-09T01:53:39.304Z,15.79
2022-11-09T01:54:39.299Z,15.86
2022-11-09T01:55:39.411Z,15.79
2022-11-09T01:56:39.315Z,15.79
2022-11-09T01:57:39.292Z,15.88
2022-11-09T01:58:39.253Z,15.84
2022-11-09T01:59:39.236Z,15.75
2022-11-09T02:00:39.284Z,15.83
2022-11-09T02:01:39.260Z,15.79
2022-11-09T02:02:39.265Z,15.86
2022-11-09T02:03:39.196Z,15.88
2022-11-09T02:04:39.211Z,15.82
2022-11-09T02:05:39.201Z,15.90
2022-11-09T02:06:39.341Z,15.86
2022-11-09T02:07:39.167Z,15.86
2022-11-09T02:08:39.160Z,15.88
2022-11-09T02:09:39.174Z,15.88
2022-11-09T02:10:39.117Z,15.83
2022-11-09T02:11:39.176Z,15.86
2022-11-09T02:12:39.095Z,15.90
2022-11-09T02:13:39.095Z,15.90
2022-11-09T02:14:39.133Z,15.84
2022-11-09T02:15:42.874Z,15.86
2022-11-09T02:16:39.066Z,15.84
2022-11-09T02:17:39.106Z,15.84
2022-11-09T02:18:39.056Z,15.77
2022-11-09T02:19:39.024Z,15.90
2022-11-09T02:20:39.020Z,15.83
2022-11-09T02:21:39.053Z,15.88
2022-11-09T02:22:38.982Z,15.92
2022-11-09T02:23:39.015Z,15.82
2022-11-09T02:24:38.972Z,15.88
2022-11-09T02:25:39.001Z,15.80
2022-11-09T02:26:38.939Z,15.77
2022-11-09T02:27:38.925Z,15.82
2022-11-09T02:28:38.928Z,15.83
2022-11-09T02:29:38.957Z,15.84
2022-11-09T02:30:38.899Z,15.90
2022-11-09T02:31:38.923Z,15.84
2022-11-09T02:32:38.913Z,15.88
2022-11-09T02:33:38.872Z,15.83
2022-11-09T02:34:38.874Z,15.88
2022-11-09T02:35:38.842Z,15.79
2022-11-09T02:36:38.852Z,15.90
2022-11-09T02:37:38.868Z,15.80
2022-11-09T02:38:38.801Z,15.83
2022-11-09T02:39:38.793Z,15.82
2022-11-09T02:40:38.805Z,15.88
2022-11-09T02:41:38.774Z,15.88
2022-11-09T02:42:38.777Z,15.92
2022-11-09T02:43:38.811Z,15.90
2022-11-09T02:44:38.795Z,15.90
2022-11-09T02:45:38.789Z,15.86
2022-11-09T02:46:38.727Z,15.91
2022-11-09T02:47:38.706Z,15.84
2022-11-09T02:48:38.748Z,15.95
2022-11-09T02:49:38.687Z,15.88
2022-11-09T02:50:38.669Z,15.84
2022-11-09T02:51:38.658Z,15.90
2022-11-09T02:52:38.734Z,15.84
2022-11-09T02:53:38.765Z,15.84
2022-11-09T02:54:38.643Z,15.91
2022-11-09T02:55:38.648Z,15.84
2022-11-09T02:56:38.620Z,15.84
2022-11-09T02:57:38.599Z,15.86
2022-11-09T02:58:38.581Z,15.83
2022-11-09T02:59:38.622Z,15.88
2022-11-09T03:00:38.606Z,15.83
2022-11-09T03:01:38.582Z,15.86
2022-11-09T03:02:38.543Z,15.83
2022-11-09T03:03:38.613Z,15.79
2022-11-09T03:04:38.701Z,15.79
2022-11-09T03:05:38.520Z,15.86
2022-11-09T03:06:38.583Z,15.83
2022-11-09T03:07:38.480Z,15.88
2022-11-09T03:08:38.483Z,15.79
2022-11-09T03:09:38.637Z,15.88
2022-11-09T03:10:38.454Z,15.86
2022-11-09T03:11:38.440Z,15.88
2022-11-09T03:12:38.459Z,15.80
2022-11-09T03:13:38.413Z,15.92
2022-11-09T03:14:38.480Z,15.84
2022-11-09T03:15:38.408Z,15.88
2022-11-09T03:16:38.381Z,15.84
2022-11-09T03:17:38.392Z,15.94
2022-11-09T03:18:38.406Z,15.91
2022-11-09T03:19:38.403Z,15.91
2022-11-09T03:20:38.402Z,15.83
2022-11-09T03:21:38.345Z,15.73
2022-11-09T03:22:38.330Z,15.79
2022-11-09T03:23:38.330Z,15.76
2022-11-09T03:24:38.319Z,15.82
2022-11-09T03:25:38.331Z,15.68
2022-11-09T03:26:38.299Z,15.76
2022-11-09T03:27:38.264Z,15.82
2022-11-09T03:28:38.264Z,15.82
2022-11-09T03:29:38.299Z,15.75
2022-11-09T03:30:38.231Z,15.67
2022-11-09T03:31:38.218Z,15.68
2022-11-09T03:32:38.218Z,15.84
2022-11-09T03:33:38.231Z,15.73
2022-11-09T03:34:38.243Z,15.75
2022-11-09T03:35:38.207Z,15.77
2022-11-09T03:36:38.156Z,15.82
2022-11-09T03:37:38.206Z,15.79
2022-11-09T03:38:38.169Z,15.80
2022-11-09T03:39:38.164Z,15.77
2022-11-09T03:40:38.181Z,15.82
2022-11-09T03:41:38.131Z,15.79
2022-11-09T03:42:38.095Z,15.80
2022-11-09T03:43:38.078Z,15.75
2022-11-09T03:44:38.075Z,15.91
2022-11-09T03:45:38.133Z,15.90
2022-11-09T03:46:38.058Z,15.83
2022-11-09T03:47:38.048Z,15.83
2022-11-09T03:48:38.032Z,15.86
2022-11-09T03:49:38.037Z,15.79
2022-11-09T03:50:38.048Z,15.84
2022-11-09T03:51:38.012Z,15.90
2022-11-09T03:52:37.982Z,15.83
2022-11-09T03:53:38.020Z,15.90
2022-11-09T03:54:37.960Z,15.76
2022-11-09T03:55:38.039Z,15.84
2022-11-09T03:56:38.007Z,15.83
2022-11-09T03:57:37.940Z,15.77
2022-11-09T03:58:37.913Z,15.82
2022-11-09T03:59:37.922Z,15.79
2022-11-09T04:00:37.909Z,15.83
2022-11-09T04:01:37.966Z,15.88
2022-11-09T04:02:37.915Z,15.82
2022-11-09T04:03:37.884Z,15.76
2022-11-09T04:04:37.854Z,15.75
2022-11-09T04:05:37.839Z,15.77
2022-11-09T04:06:37.930Z,15.70
2022-11-09T04:07:37.823Z,15.72
2022-11-09T04:08:37.813Z,15.65
2022-11-09T04:09:37.811Z,15.72
2022-11-09T04:10:37.859Z,15.75
2022-11-09T04:11:37.770Z,15.67
2022-11-09T04:12:37.821Z,15.75
2022-11-09T04:13:37.747Z,15.65
2022-11-09T04:14:37.749Z,15.72
2022-11-09T04:15:37.749Z,15.64
2022-11-09T04:16:37.747Z,15.64
2022-11-09T04:17:37.777Z,15.72
2022-11-09T04:18:37.762Z,15.70
2022-11-09T04:19:37.680Z,15.57
2022-11-09T04:20:37.683Z,15.68
2022-11-09T04:21:37.736Z,15.62
2022-11-09T04:22:37.660Z,15.58
2022-11-09T04:23:37.635Z,15.68
2022-11-09T04:24:37.674Z,15.59
2022-11-09T04:25:37.625Z,15.62
2022-11-09T04:26:37.609Z,15.65
2022-11-09T04:27:37.591Z,15.68
2022-11-09T04:28:37.662Z,15.72
2022-11-09T04:29:37.573Z,15.62
2022-11-09T04:30:37.557Z,15.62
2022-11-09T04:31:37.580Z,15.72
2022-11-09T04:32:37.545Z,15.55
2022-11-09T04:33:37.526Z,15.68
2022-11-09T04:34:37.617Z,15.61
2022-11-09T04:35:37.540Z,15.57
2022-11-09T04:36:37.490Z,15.68
2022-11-09T04:37:37.493Z,15.68
2022-11-09T04:38:37.532Z,15.61
2022-11-09T04:39:37.503Z,15.72
2022-11-09T04:40:37.477Z,15.67
2022-11-09T04:41:37.484Z,15.68
2022-11-09T04:42:37.437Z,15.70
2022-11-09T04:43:37.425Z,15.70
2022-11-09T04:44:37.431Z,15.70
2022-11-09T04:45:37.439Z,15.70
2022-11-09T04:46:37.447Z,15.73
2022-11-09T04:47:37.420Z,15.70
2022-11-09T04:48:37.357Z,15.64
2022-11-09T04:49:37.391Z,15.77
2022-11-09T04:50:37.337Z,15.73
2022-11-09T04:51:37.401Z,15.67
2022-11-09T04:52:37.325Z,15.76
2022-11-09T04:53:37.306Z,15.67
2022-11-09T04:54:37.296Z,15.67
2022-11-09T04:55:37.314Z,15.68
2022-11-09T04:56:37.460Z,15.70
2022-11-09T04:57:37.306Z,15.57
2022-11-09T04:58:37.350Z,15.61
2022-11-09T04:59:37.294Z,15.64
2022-11-09T05:00:37.259Z,15.62
2022-11-09T05:01:37.256Z,15.51
2022-11-09T05:02:37.248Z,15.52
2022-11-09T05:03:37.273Z,15.58
2022-11-09T05:04:37.225Z,15.58
2022-11-09T05:05:37.169Z,15.59
2022-11-09T05:06:37.206Z,15.61
2022-11-09T05:07:37.149Z,15.62
2022-11-09T05:08:37.132Z,15.61
2022-11-09T05:09:37.201Z,15.55
2022-11-09T05:10:37.124Z,15.62
2022-11-09T05:11:37.103Z,15.64
2022-11-09T05:12:37.106Z,15.57
2022-11-09T05:13:37.079Z,15.55
2022-11-09T05:14:37.180Z,15.46
2022-11-09T05:15:37.055Z,15.47
2022-11-09T05:16:37.074Z,15.44
2022-11-09T05:17:37.037Z,15.46
2022-11-09T05:18:37.035Z,15.47
2022-11-09T05:19:37.080Z,15.46
2022-11-09T05:20:37.067Z,15.42
2022-11-09T05:21:37.062Z,15.47
2022-11-09T05:22:36.978Z,15.43
2022-11-09T05:23:37.041Z,15.49
2022-11-09T05:24:36.955Z,15.42
2022-11-09T05:25:36.946Z,15.42
2022-11-09T05:26:37.032Z,15.18
2022-11-09T05:27:36.930Z,15.27
2022-11-09T05:28:36.927Z,15.21
2022-11-09T05:29:37.049Z,15.02
2022-11-09T05:30:36.888Z,15.11
2022-11-09T05:31:36.889Z,15.17
2022-11-09T05:32:36.957Z,15.29
2022-11-09T05:33:36.939Z,15.19
2022-11-09T05:34:36.894Z,15.17
2022-11-09T05:35:36.840Z,15.19
2022-11-09T05:36:36.868Z,15.31
2022-11-09T05:37:36.928Z,15.17
2022-11-09T05:38:36.801Z,15.17
2022-11-09T05:39:36.790Z,15.22
2022-11-09T05:40:36.816Z,15.22
2022-11-09T05:41:36.820Z,15.19
2022-11-09T05:42:36.758Z,15.18
2022-11-09T05:43:36.810Z,15.31
2022-11-09T05:44:36.736Z,15.35
2022-11-09T05:45:42.545Z,15.28
2022-11-09T05:46:36.721Z,15.37
2022-11-09T05:47:36.737Z,15.29
2022-11-09T05:48:36.814Z,15.35
2022-11-09T05:49:36.740Z,15.36
2022-11-09T05:50:36.673Z,15.28
2022-11-09T05:51:36.740Z,15.33
2022-11-09T05:52:36.666Z,15.27
2022-11-09T05:53:36.633Z,15.25
2022-11-09T05:54:36.630Z,15.18
2022-11-09T05:55:36.616Z,15.22
2022-11-09T05:56:36.610Z,15.27
2022-11-09T05:57:36.641Z,15.31
2022-11-09T05:58:36.596Z,15.31
2022-11-09T05:59:36.614Z,15.21
2022-11-09T06:00:36.566Z,15.15
2022-11-09T06:01:36.546Z,15.22
2022-11-09T06:02:36.645Z,15.24
2022-11-09T06:03:36.537Z,15.25
2022-11-09T06:04:36.575Z,15.17
2022-11-09T06:05:36.559Z,15.14
2022-11-09T06:06:36.591Z,15.18
2022-11-09T06:07:36.477Z,15.22
2022-11-09T06:08:36.485Z,15.19
2022-11-09T06:09:36.463Z,15.19
2022-11-09T06:10:36.510Z,15.15
2022-11-09T06:11:36.439Z,15.19
2022-11-09T06:12:36.478Z,15.15
2022-11-09T06:13:36.414Z,15.17
2022-11-09T06:14:36.495Z,15.00
2022-11-09T06:15:36.408Z,15.09
2022-11-09T06:16:36.433Z,15.06
2022-11-09T06:17:36.416Z,15.07
2022-11-09T06:18:36.423Z,15.06
2022-11-09T06:19:36.371Z,15.15
2022-11-09T06:20:36.352Z,15.15
2022-11-09T06:21:36.336Z,15.10
2022-11-09T06:22:36.499Z,15.15
2022-11-09T06:23:36.388Z,15.06
2022-11-09T06:24:36.428Z,15.27
2022-11-09T06:25:36.301Z,15.18
2022-11-09T06:26:36.319Z,15.18
2022-11-09T06:27:36.318Z,15.28
2022-11-09T06:28:36.303Z,15.29
2022-11-09T06:29:36.234Z,15.31
2022-11-09T06:30:36.234Z,15.37
2022-11-09T06:31:36.220Z,15.36
2022-11-09T06:32:36.222Z,15.29
2022-11-09T06:33:36.243Z,15.36
2022-11-09T06:34:36.231Z,15.36
2022-11-09T06:35:36.227Z,15.47
2022-11-09T06:36:36.175Z,15.40
2022-11-09T06:37:36.208Z,15.39
2022-11-09T06:38:36.143Z,15.46
2022-11-09T06:39:36.153Z,15.51
2022-11-09T06:40:36.188Z,15.43
2022-11-09T06:41:36.121Z,15.55
2022-11-09T06:42:36.137Z,15.47
2022-11-09T06:43:36.310Z,15.55
2022-11-09T06:44:36.082Z,15.46
2022-11-09T06:45:36.119Z,15.51
2022-11-09T06:46:36.047Z,15.51
2022-11-09T06:47:36.056Z,15.49
2022-11-09T06:48:36.059Z,15.54
2022-11-09T06:49:36.016Z,15.54
2022-11-09T06:50:36.012Z,15.61
2022-11-09T06:51:36.038Z,15.61
2022-11-09T06:52:35.994Z,15.58
2022-11-09T06:53:36.009Z,15.62
2022-11-09T06:54:35.964Z,15.57
2022-11-09T06:55:35.954Z,15.62
2022-11-09T06:56:36.014Z,15.58
2022-11-09T06:57:35.974Z,15.58
2022-11-09T06:58:35.966Z,15.59
2022-11-09T06:59:35.908Z,15.61
2022-11-09T07:00:35.893Z,15.64
2022-11-09T07:01:35.930Z,15.59
2022-11-09T07:02:35.910Z,15.59
2022-11-09T07:03:35.859Z,15.58
2022-11-09T07:04:35.872Z,15.58
2022-11-09T07:05:35.849Z,15.58
2022-11-09T07:06:35.906Z,15.59
2022-11-09T07:07:35.824Z,15.57
2022-11-09T07:08:35.943Z,15.55
2022-11-09T07:09:35.848Z,15.58
2022-11-09T07:10:35.780Z,15.47
2022-11-09T07:11:35.787Z,15.51
2022-11-09T07:12:35.820Z,15.57
2022-11-09T07:13:35.750Z,15.58
2022-11-09T07:14:35.743Z,15.59
2022-11-09T07:15:35.722Z,15.57
2022-11-09T07:16:35.714Z,15.58
2022-11-09T07:17:35.747Z,15.51
2022-11-09T07:18:35.733Z,15.57
2022-11-09T07:19:35.729Z,15.54
2022-11-09T07:20:35.674Z,15.55
2022-11-09T07:21:35.713Z,15.58
2022-11-09T07:22:35.653Z,15.47
2022-11-09T07:23:35.633Z,15.52
2022-11-09T07:24:35.650Z,15.57
2022-11-09T07:25:35.694Z,15.40
2022-11-09T07:26:35.606Z,15.44
2022-11-09T07:27:35.592Z,15.54
2022-11-09T07:28:35.593Z,15.55
2022-11-09T07:29:35.571Z,15.51
2022-11-09T07:30:35.620Z,15.39
2022-11-09T07:31:35.741Z,15.47
2022-11-09T07:33:02.479Z,15.36
2022-11-09T07:33:35.602Z,15.37
2022-11-09T07:34:35.529Z,15.39
2022-11-09T07:35:35.513Z,15.47
2022-11-09T07:36:35.707Z,15.46
2022-11-09T07:37:35.477Z,15.43
2022-11-09T07:38:35.465Z,15.40
2022-11-09T07:39:35.462Z,15.46
2022-11-09T07:40:35.711Z,15.49
2022-11-09T07:41:35.480Z,15.47
2022-11-09T07:42:35.438Z,15.44
2022-11-09T07:43:35.412Z,15.42
2022-11-09T07:44:35.399Z,15.37
2022-11-09T07:45:35.401Z,15.37
2022-11-09T07:46:35.423Z,15.35
2022-11-09T07:47:35.376Z,15.40
2022-11-09T07:48:35.417Z,15.36
2022-11-09T07:49:35.359Z,15.29
2022-11-09T07:50:35.366Z,15.35
2022-11-09T07:51:35.359Z,15.27
2022-11-09T07:52:35.355Z,15.31
2022-11-09T07:53:35.332Z,15.37
2022-11-09T07:54:35.289Z,15.35
2022-11-09T07:55:35.360Z,15.33
2022-11-09T07:56:35.346Z,15.36
2022-11-09T07:57:35.272Z,15.33
2022-11-09T07:58:35.284Z,15.39
2022-11-09T07:59:35.261Z,15.40
2022-11-09T08:00:35.221Z,15.39
2022-11-09T08:01:35.295Z,15.40
2022-11-09T08:02:35.213Z,15.40
2022-11-09T08:03:35.237Z,15.42
2022-11-09T08:04:35.184Z,15.42
2022-11-09T08:05:35.182Z,15.42
2022-11-09T08:06:35.195Z,15.31
2022-11-09T08:07:35.155Z,15.37
2022-11-09T08:08:35.142Z,15.33
2022-11-09T08:09:35.178Z,15.29
2022-11-09T08:10:35.182Z,15.18
2022-11-09T08:11:35.124Z,15.27
2022-11-09T08:12:37.240Z,15.35
2022-11-09T08:13:35.091Z,15.36
2022-11-09T08:14:35.076Z,15.37
2022-11-09T08:15:35.083Z,15.37
2022-11-09T08:16:37.879Z,15.42
2022-11-09T08:17:35.050Z,15.44
2022-11-09T08:18:35.034Z,15.46
2022-11-09T08:19:35.012Z,15.44
2022-11-09T08:20:35.034Z,15.51
2022-11-09T08:21:35.045Z,15.46
2022-11-09T08:22:34.996Z,15.44
2022-11-09T08:23:35.009Z,15.49
2022-11-09T08:24:34.956Z,15.44
2022-11-09T08:25:34.953Z,15.43
2022-11-09T08:26:34.974Z,15.43
2022-11-09T08:27:34.932Z,15.44
2022-11-09T08:28:34.978Z,15.49
2022-11-09T08:29:34.900Z,15.54
2022-11-09T08:30:34.904Z,15.46
2022-11-09T08:31:34.888Z,15.39
2022-11-09T08:32:34.863Z,15.46
2022-11-09T08:33:34.870Z,15.42
2022-11-09T08:34:34.901Z,15.52
2022-11-09T08:35:34.829Z,15.44
2022-11-09T08:36:34.832Z,15.42
2022-11-09T08:37:34.836Z,15.47
2022-11-09T08:38:34.804Z,15.44
2022-11-09T08:39:34.835Z,15.29
2022-11-09T08:40:34.793Z,15.35
2022-11-09T08:41:34.903Z,15.40
2022-11-09T08:42:34.791Z,15.46
2022-11-09T08:43:34.752Z,15.44
2022-11-09T08:44:34.747Z,15.49
2022-11-09T08:45:34.747Z,15.54
2022-11-09T08:46:39.856Z,15.58
2022-11-09T08:47:35.782Z,15.59
2022-11-09T08:48:34.687Z,15.57
2022-11-09T08:49:34.680Z,15.62
2022-11-09T08:50:34.676Z,15.68
2022-11-09T08:51:34.676Z,15.75
2022-11-09T08:52:34.754Z,15.68
2022-11-09T08:53:34.682Z,15.65
2022-11-09T08:54:34.622Z,15.65
2022-11-09T08:55:34.610Z,15.80
2022-11-09T08:56:34.643Z,15.79
2022-11-09T08:57:34.599Z,15.83
2022-11-09T08:58:34.586Z,15.76
2022-11-09T08:59:34.566Z,15.77
2022-11-09T09:00:34.636Z,15.84
2022-11-09T09:01:34.586Z,15.72
2022-11-09T09:02:34.549Z,15.90
2022-11-09T09:03:34.520Z,15.82
2022-11-09T09:04:34.516Z,15.88
2022-11-09T09:05:34.560Z,15.77
2022-11-09T09:06:34.588Z,15.84
2022-11-09T09:07:34.482Z,15.90
2022-11-09T09:08:34.469Z,15.88
2022-11-09T09:09:34.517Z,15.90
2022-11-09T09:10:34.442Z,15.86
2022-11-09T09:11:34.509Z,15.84
2022-11-09T09:12:34.432Z,15.91
2022-11-09T09:13:37.693Z,15.80
2022-11-09T09:14:34.445Z,15.76
2022-11-09T09:15:34.394Z,15.79
2022-11-09T09:16:34.407Z,15.90
2022-11-09T09:17:34.434Z,15.80
2022-11-09T09:18:34.355Z,15.79
2022-11-09T09:19:34.374Z,15.77
2022-11-09T09:20:34.355Z,15.86
2022-11-09T09:21:34.378Z,15.88
2022-11-09T09:22:34.312Z,15.83
2022-11-09T09:23:34.347Z,15.95
2022-11-09T09:24:34.315Z,15.97
2022-11-09T09:25:34.277Z,16.02
2022-11-09T09:26:34.289Z,15.94
2022-11-09T09:27:34.266Z,16.01
2022-11-09T09:28:34.304Z,16.08
2022-11-09T09:29:34.248Z,16.16
2022-11-09T09:30:34.263Z,16.12
2022-11-09T09:31:34.220Z,16.12
2022-11-09T09:32:34.262Z,16.16
2022-11-09T09:33:34.201Z,16.23
2022-11-09T09:34:34.174Z,16.20
2022-11-09T09:35:34.210Z,16.32
2022-11-09T09:36:34.155Z,16.32
2022-11-09T09:37:34.159Z,16.29
2022-11-09T09:38:34.246Z,16.32
2022-11-09T09:39:34.130Z,16.29
2022-11-09T09:40:34.117Z,16.43
2022-11-09T09:41:34.113Z,16.36
2022-11-09T09:42:34.108Z,16.50
2022-11-09T09:43:36.189Z,16.41
2022-11-09T09:44:34.127Z,16.50
2022-11-09T09:45:34.052Z,16.49
2022-11-09T09:46:34.052Z,16.58
2022-11-09T09:47:34.038Z,16.64
2022-11-09T09:48:34.085Z,16.71
2022-11-09T09:49:34.064Z,16.71
2022-11-09T09:50:33.999Z,16.79
2022-11-09T09:51:34.040Z,16.87
2022-11-09T09:52:34.004Z,16.90
2022-11-09T09:53:33.962Z,17.04
2022-11-09T09:54:34.012Z,16.99
2022-11-09T09:55:33.941Z,17.04
2022-11-09T09:56:33.932Z,16.84
2022-11-09T09:57:37.696Z,16.89
2022-11-09T09:58:33.949Z,16.89
2022-11-09T09:59:33.931Z,16.90
2022-11-09T10:00:33.897Z,16.93
2022-11-09T10:01:33.927Z,16.94
2022-11-09T10:02:33.877Z,16.90
2022-11-09T10:03:33.874Z,16.94
2022-11-09T10:04:33.923Z,16.96
2022-11-09T10:05:33.838Z,16.99
2022-11-09T10:06:33.976Z,17.05
2022-11-09T10:07:33.837Z,16.99
2022-11-09T10:08:33.798Z,17.04
2022-11-09T10:09:34.365Z,17.05
2022-11-09T10:10:33.777Z,17.05
2022-11-09T10:11:33.818Z,17.05
2022-11-09T10:12:33.822Z,17.08
2022-11-09T10:13:33.748Z,17.02
2022-11-09T10:14:33.732Z,17.11
2022-11-09T10:15:33.796Z,17.23
2022-11-09T10:16:33.709Z,17.14
2022-11-09T10:17:33.707Z,17.30
2022-11-09T10:18:33.712Z,17.41
2022-11-09T10:19:33.682Z,17.30
2022-11-09T10:20:33.714Z,17.31
2022-11-09T10:21:33.713Z,17.41
2022-11-09T10:22:33.651Z,17.46
2022-11-09T10:23:33.690Z,17.48
2022-11-09T10:24:33.655Z,17.59
2022-11-09T10:26:33.604Z,17.71
2022-11-09T10:27:33.590Z,17.76
2022-11-09T10:28:54.241Z,17.83
2022-11-09T10:29:33.699Z,17.74
2022-11-09T10:30:33.559Z,17.78
2022-11-09T10:31:33.559Z,17.76
2022-11-09T10:32:33.575Z,17.79
2022-11-09T10:33:33.570Z,17.76
2022-11-09T10:34:33.519Z,17.70
2022-11-09T10:35:33.540Z,17.54
2022-11-09T10:36:33.524Z,17.63
2022-11-09T10:37:33.535Z,17.74
2022-11-09T10:38:33.482Z,17.79
2022-11-09T10:39:33.456Z,17.86
2022-11-09T10:40:33.457Z,17.97
2022-11-09T10:41:33.518Z,17.98
2022-11-09T10:42:33.424Z,17.87
2022-11-09T10:43:33.467Z,17.80
2022-11-09T10:44:33.447Z,17.86
2022-11-09T10:45:33.446Z,17.89
2022-11-09T10:46:33.403Z,17.89
2022-11-09T10:47:33.420Z,17.94
2022-11-09T10:48:33.364Z,17.95
2022-11-09T10:49:33.358Z,18.03
2022-11-09T10:50:33.360Z,18.01
2022-11-09T10:51:33.337Z,18.05
2022-11-09T10:52:33.388Z,17.95
2022-11-09T10:53:33.307Z,17.78
2022-11-09T10:54:33.332Z,17.85
2022-11-09T10:55:33.286Z,17.80
2022-11-09T10:56:47.241Z,17.78
2022-11-09T10:57:33.314Z,17.74
2022-11-09T10:58:33.256Z,17.82
2022-11-09T10:59:33.235Z,17.92
2022-11-09T11:00:33.279Z,17.95
2022-11-09T11:01:33.259Z,17.89
2022-11-09T11:02:33.236Z,17.95
2022-11-09T11:03:33.250Z,18.10
2022-11-09T11:04:33.200Z,18.08
2022-11-09T11:05:33.211Z,18.04
2022-11-09T11:06:33.232Z,18.13
2022-11-09T11:07:33.159Z,18.08
2022-11-09T11:08:33.194Z,18.25
2022-11-09T11:09:33.187Z,18.08
2022-11-09T11:10:33.155Z,18.05
2022-11-09T11:11:35.676Z,17.94
2022-11-09T11:12:33.099Z,17.95
2022-11-09T11:13:33.093Z,18.08
2022-11-09T11:14:33.229Z,18.08
2022-11-09T11:15:33.074Z,18.01
2022-11-09T11:16:33.110Z,18.08
2022-11-09T11:17:33.045Z,18.10
2022-11-09T11:18:33.028Z,18.11
2022-11-09T11:19:33.018Z,18.16
2022-11-09T11:20:33.075Z,18.13
2022-11-09T11:21:33.004Z,18.11
2022-11-09T11:22:33.026Z,17.95
2022-11-09T11:23:32.976Z,18.00
2022-11-09T11:24:33.080Z,18.03
2022-11-09T11:25:32.954Z,17.98
2022-11-09T11:26:32.956Z,17.90
2022-11-09T11:27:33.016Z,18.10
2022-11-09T11:28:32.970Z,18.13
2022-11-09T11:29:32.969Z,18.10
2022-11-09T11:30:32.903Z,18.07
2022-11-09T11:31:32.929Z,17.80
2022-11-09T11:32:32.894Z,17.90
2022-11-09T11:33:32.890Z,17.92
2022-11-09T11:34:58.631Z,17.90
2022-11-09T11:35:32.845Z,17.94
2022-11-09T11:36:32.843Z,17.98
2022-11-09T11:37:32.913Z,17.86
2022-11-09T11:38:32.820Z,17.89
2022-11-09T11:39:32.817Z,17.86
2022-11-09T11:40:32.853Z,17.90
2022-11-09T11:41:32.796Z,17.89
2022-11-09T11:42:32.794Z,17.95
2022-11-09T11:43:32.848Z,17.92
2022-11-09T11:44:32.766Z,17.92
2022-11-09T11:45:41.594Z,18.04
2022-11-09T11:46:33.741Z,18.03
2022-11-09T11:47:32.712Z,18.10
2022-11-09T11:48:32.792Z,18.07
2022-11-09T11:49:32.704Z,18.08
2022-11-09T11:50:32.720Z,18.15
2022-11-09T11:51:32.728Z,18.01
2022-11-09T11:52:32.731Z,17.95
2022-11-09T11:53:32.705Z,18.05
2022-11-09T11:54:32.744Z,18.04
2022-11-09T11:55:32.629Z,18.08
2022-11-09T11:56:32.644Z,18.08
2022-11-09T11:57:32.631Z,18.05
2022-11-09T11:58:32.590Z,18.07
2022-11-09T11:59:32.653Z,18.20
2022-11-09T12:00:32.662Z,18.19
2022-11-09T12:01:33.242Z,18.22
2022-11-09T12:02:32.700Z,18.22
2022-11-09T12:03:32.534Z,18.18
2022-11-09T12:04:32.627Z,18.33
2022-11-09T12:05:32.562Z,18.28
2022-11-09T12:06:32.562Z,18.28
2022-11-09T12:07:32.511Z,18.33
2022-11-09T12:08:32.479Z,18.34
2022-11-09T12:09:32.481Z,18.33
2022-11-09T12:10:32.533Z,18.33
2022-11-09T12:11:32.474Z,18.35
2022-11-09T12:12:32.528Z,18.29
2022-11-09T12:13:32.451Z,18.34
2022-11-09T12:14:32.449Z,18.38
2022-11-09T12:15:32.408Z,18.23
2022-11-09T12:16:32.470Z,18.29
2022-11-09T12:17:32.456Z,18.38
2022-11-09T12:18:32.377Z,18.37
2022-11-09T12:19:35.612Z,18.47
2022-11-09T12:20:32.346Z,18.44
2022-11-09T12:21:32.420Z,18.43
2022-11-09T12:22:32.336Z,18.50
2022-11-09T12:23:32.323Z,18.52
2022-11-09T12:24:32.313Z,18.47
2022-11-09T12:25:32.307Z,18.49
2022-11-09T12:26:32.337Z,18.40
2022-11-09T12:27:33.384Z,18.47
2022-11-09T12:28:32.328Z,18.44
2022-11-09T12:29:32.252Z,18.47
2022-11-09T12:30:32.258Z,18.58
2022-11-09T12:31:32.244Z,18.53
2022-11-09T12:32:32.317Z,18.55
2022-11-09T12:33:35.447Z,18.44
2022-11-09T12:34:32.198Z,18.53
2022-11-09T12:35:32.225Z,18.50
2022-11-09T12:36:32.285Z,18.45
2022-11-09T12:37:32.202Z,18.55
2022-11-09T12:38:32.206Z,18.65
2022-11-09T12:39:32.152Z,18.83
2022-11-09T12:40:32.158Z,18.63
2022-11-09T12:41:32.137Z,18.66
2022-11-09T12:42:32.150Z,18.63
2022-11-09T12:43:32.121Z,18.73
2022-11-09T12:44:32.167Z,18.78
2022-11-09T12:45:32.080Z,18.70
2022-11-09T12:46:32.080Z,18.59
2022-11-09T12:47:32.120Z,18.73
2022-11-09T12:48:32.076Z,18.74
2022-11-09T12:49:32.239Z,18.73
2022-11-09T12:50:32.087Z,18.73
2022-11-09T12:51:32.018Z,18.78
2022-11-09T12:52:32.015Z,18.75
2022-11-09T12:53:32.044Z,18.71